Time;durP1;ratioP1;P1;durP2;ratioP2;P2;SDS_P1;SDS_P2;PMS_P1;PMS_P2;Temp;Humidity;BMP_temperature;BMP_pressure;BME280_temperature;BME280_humidity;BME280_pressure;Samples;Min_cycle;Max_cycle;Signal;HPM_P1;HPM_P2
2022/06/27 04:00:14;;;;;;;3.50;3.30;;;19.90;99.90;;;;;;6003343;23;21976;31
2022/06/27 04:02:40;;;;;;;4.93;4.33;;;19.90;99.90;;;;;;4931055;29;20495;-67
2022/06/27 04:05:08;;;;;;;4.43;4.27;;;19.80;99.90;;;;;;4934552;29;20461;-67
2022/06/27 04:07:35;;;;;;;4.87;4.47;;;19.80;99.90;;;;;;4935700;29;20492;-67
2022/06/27 04:10:02;;;;;;;4.73;4.30;;;19.80;99.90;;;;;;4929877;29;20569;-68
2022/06/27 04:12:29;;;;;;;4.13;3.83;;;19.80;99.90;;;;;;4935606;29;20497;-67
2022/06/27 04:17:23;;;;;;;4.40;3.77;;;19.90;99.90;;;;;;4989837;23;20853;-70
2022/06/27 04:19:49;;;;;;;4.93;4.67;;;19.80;99.90;;;;;;4974469;28;20216;-69
2022/06/27 04:22:16;;;;;;;4.30;4.10;;;19.80;99.90;;;;;;4974414;28;20578;-68
2022/06/27 04:24:43;;;;;;;4.13;3.93;;;19.80;99.90;;;;;;4973991;28;20536;-69
2022/06/27 04:27:10;;;;;;;4.53;4.33;;;19.70;99.90;;;;;;4974327;28;20490;-69
2022/06/27 04:29:36;;;;;;;4.10;3.93;;;19.70;99.90;;;;;;4973675;28;20963;-70
2022/06/27 04:32:07;;;;;;;4.10;3.90;;;19.60;99.90;;;;;;4974566;28;20498;-69
2022/06/27 04:34:35;;;;;;;4.60;4.40;;;19.50;99.90;;;;;;4973824;28;20514;-70
2022/06/27 04:37:03;;;;;;;4.20;4.10;;;19.50;99.90;;;;;;4974682;28;20506;-70
2022/06/27 04:39:30;;;;;;;4.07;3.83;;;19.40;99.90;;;;;;4973246;28;20566;-70
2022/06/27 04:41:57;;;;;;;4.20;4.00;;;19.30;99.90;;;;;;4973736;28;20562;-72
2022/06/27 04:44:25;;;;;;;4.07;3.80;;;19.50;99.90;;;;;;4973946;28;20467;-69
2022/06/27 04:46:52;;;;;;;3.87;3.67;;;19.70;99.90;;;;;;4974253;28;20626;-70
2022/06/27 04:49:19;;;;;;;3.87;3.60;;;19.80;99.90;;;;;;4973951;28;20478;-69
2022/06/27 04:51:49;;;;;;;3.90;3.60;;;19.90;99.90;;;;;;4974126;28;20780;-69
2022/06/27 04:54:16;;;;;;;4.03;3.63;;;20.00;99.90;;;;;;4973330;28;20511;-69
2022/06/27 04:56:44;;;;;;;3.37;3.17;;;20.00;99.90;;;;;;4973972;28;20512;-70
2022/06/27 04:59:12;;;;;;;3.10;3.10;;;20.10;99.90;;;;;;4971272;28;20548;-71
2022/06/27 05:01:39;;;;;;;4.57;4.40;;;20.20;99.90;;;;;;4973806;28;20502;-68
2022/06/27 05:04:05;;;;;;;3.10;3.10;;;20.50;99.90;;;;;;4974589;28;20487;-69
2022/06/27 05:06:33;;;;;;;3.60;3.40;;;20.70;99.90;;;;;;4974025;28;20484;-69
2022/06/27 05:09:01;;;;;;;3.20;3.10;;;20.90;99.90;;;;;;4973267;28;20471;-68
2022/06/27 05:11:27;;;;;;;2.90;2.80;;;21.20;99.90;;;;;;4973980;28;20524;-68
2022/06/27 05:13:54;;;;;;;4.20;4.07;;;21.10;99.90;;;;;;4973282;28;20923;-69
2022/06/27 05:16:21;;;;;;;3.20;3.10;;;20.90;99.90;;;;;;4973154;28;20553;-70
2022/06/27 05:18:48;;;;;;;4.63;4.27;;;20.80;99.90;;;;;;4973545;28;20483;-69
2022/06/27 05:21:14;;;;;;;3.60;3.40;;;20.70;99.90;;;;;;4973504;28;20543;-69
2022/06/27 05:23:41;;;;;;;3.77;3.30;;;20.80;99.90;;;;;;4972791;28;20994;-70
2022/06/27 05:26:09;;;;;;;3.33;3.23;;;21.00;99.90;;;;;;4975445;28;20491;-68
2022/06/27 05:28:36;;;;;;;3.47;3.37;;;21.20;99.90;;;;;;4975900;28;20475;-66
2022/06/27 05:31:03;;;;;;;3.80;3.50;;;21.50;99.90;;;;;;4981947;28;20611;-69
2022/06/27 05:33:29;;;;;;;3.67;3.57;;;21.60;99.90;;;;;;4982812;28;20456;-70
2022/06/27 05:35:56;;;;;;;4.07;3.70;;;21.70;99.90;;;;;;4979816;28;20483;-69
2022/06/27 05:38:23;;;;;;;4.63;3.50;;;21.50;99.90;;;;;;4976871;28;20459;-71
2022/06/27 05:40:50;;;;;;;3.50;3.40;;;21.30;99.90;;;;;;4973519;28;20474;-69
2022/06/27 05:43:19;;;;;;;3.63;3.50;;;21.20;99.90;;;;;;4973990;28;20470;-70
2022/06/27 05:45:46;;;;;;;4.00;3.80;;;21.30;99.90;;;;;;4973426;28;21102;-70
2022/06/27 05:48:13;;;;;;;3.97;3.53;;;21.40;99.90;;;;;;4966718;28;20472;-70
2022/06/27 05:50:39;;;;;;;3.70;3.53;;;21.50;99.90;;;;;;4972793;28;20460;-69
2022/06/27 05:53:06;;;;;;;4.40;4.00;;;21.60;99.90;;;;;;4972659;28;20512;-69
2022/06/27 05:55:33;;;;;;;4.50;4.30;;;21.90;99.90;;;;;;4973660;28;20488;-70
2022/06/27 05:58:02;;;;;;;4.00;3.80;;;22.20;99.90;;;;;;4973269;28;20505;-70
2022/06/27 06:00:30;;;;;;;4.53;4.33;;;22.30;99.90;;;;;;4972886;28;20467;-70
2022/06/27 06:02:58;;;;;;;3.97;3.67;;;22.20;99.90;;;;;;4973072;28;20464;-69
2022/06/27 06:05:25;;;;;;;4.17;3.87;;;22.30;99.90;;;;;;4973164;28;20587;-68
2022/06/27 06:07:52;;;;;;;4.50;4.30;;;22.70;99.90;;;;;;4972697;28;20482;-70
2022/06/27 06:10:19;;;;;;;3.77;3.57;;;23.10;99.90;;;;;;4972707;28;20544;-69
2022/06/27 06:12:46;;;;;;;4.67;4.27;;;23.30;99.90;;;;;;4972697;28;20498;-69
2022/06/27 06:15:14;;;;;;;3.97;3.77;;;23.70;99.90;;;;;;4972066;28;20468;-69
2022/06/27 06:17:42;;;;;;;7.10;4.60;;;24.20;99.90;;;;;;4973406;28;20526;-70
2022/06/27 06:20:10;;;;;;;4.33;4.13;;;24.30;99.90;;;;;;4973652;28;20470;-70
2022/06/27 06:22:38;;;;;;;3.30;3.20;;;24.20;99.90;;;;;;4971851;28;20463;-69
2022/06/27 06:25:06;;;;;;;4.17;4.07;;;24.20;99.90;;;;;;4972066;28;20479;-68
2022/06/27 06:27:33;;;;;;;4.03;3.90;;;24.30;99.90;;;;;;4971355;28;20471;-69
2022/06/27 06:30:02;;;;;;;4.70;4.30;;;24.50;99.90;;;;;;4971791;28;21024;-69
2022/06/27 06:32:29;;;;;;;4.93;4.83;;;24.80;99.90;;;;;;4972209;28;20490;-68
2022/06/27 06:34:57;;;;;;;5.00;4.70;;;25.00;99.90;;;;;;4972286;28;20463;-69
2022/06/27 06:37:24;;;;;;;5.40;5.10;;;25.10;99.90;;;;;;4965574;28;20484;-70
2022/06/27 06:39:50;;;;;;;5.07;4.80;;;25.20;99.90;;;;;;4956749;28;20836;-69
2022/06/27 06:42:17;;;;;;;4.93;4.77;;;25.30;99.90;;;;;;4972294;28;20465;-69
2022/06/27 06:44:44;;;;;;;4.70;4.50;;;25.60;99.90;;;;;;4971427;28;20468;-69
2022/06/27 06:47:12;;;;;;;5.17;4.97;;;26.00;99.90;;;;;;4972318;28;20493;-70
2022/06/27 06:49:40;;;;;;;4.33;4.13;;;26.30;99.90;;;;;;4971671;28;20467;-69
2022/06/27 06:52:09;;;;;;;4.00;4.00;;;26.80;99.90;;;;;;4972640;28;20501;-71
2022/06/27 06:54:37;;;;;;;5.33;5.10;;;27.70;99.90;;;;;;4971173;28;20558;-70
2022/06/27 06:57:04;;;;;;;5.23;5.07;;;28.30;99.90;;;;;;4971935;28;20577;-68
2022/06/27 06:59:31;;;;;;;5.50;5.30;;;28.10;99.90;;;;;;4971184;28;20462;-70
2022/06/27 07:01:58;;;;;;;6.50;6.20;;;27.80;99.90;;;;;;4972004;28;20513;-70
2022/06/27 07:04:26;;;;;;;6.10;5.80;;;27.50;99.90;;;;;;4971727;28;20466;-70
2022/06/27 07:06:53;;;;;;;6.10;5.50;;;27.30;99.90;;;;;;4972014;28;20965;-69
2022/06/27 07:09:21;;;;;;;5.60;5.23;;;26.70;99.90;;;;;;4971310;28;20518;-69
2022/06/27 07:11:47;;;;;;;5.93;5.73;;;26.10;99.90;;;;;;4971516;28;20826;-69
2022/06/27 07:14:15;;;;;;;6.50;6.20;;;25.80;99.90;;;;;;4971498;28;20465;-67
2022/06/27 07:16:43;;;;;;;6.43;6.13;;;25.50;99.90;;;;;;4971668;28;20495;-69
2022/06/27 07:19:10;;;;;;;5.87;5.63;;;25.30;99.90;;;;;;4971673;28;20558;-70
2022/06/27 07:21:37;;;;;;;6.63;6.13;;;25.20;99.90;;;;;;4971654;28;20459;-69
2022/06/27 07:24:08;;;;;;;6.50;6.00;;;25.30;99.90;;;;;;4970935;28;20464;-70
2022/06/27 07:26:37;;;;;;;6.27;5.97;;;25.40;99.90;;;;;;4968161;28;20551;-69
2022/06/27 07:29:05;;;;;;;6.83;6.47;;;25.60;99.90;;;;;;4971058;28;20583;-71
2022/06/27 07:31:32;;;;;;;6.37;5.97;;;25.70;99.90;;;;;;4971406;28;20483;-70
2022/06/27 07:33:59;;;;;;;6.50;6.20;;;25.70;99.90;;;;;;4971549;28;20841;-68
2022/06/27 07:36:28;;;;;;;7.17;6.77;;;25.50;99.90;;;;;;4971598;28;20496;-70
2022/06/27 07:38:55;;;;;;;6.97;6.67;;;25.30;99.90;;;;;;4972523;28;20468;-68
2022/06/27 07:41:23;;;;;;;7.00;6.53;;;25.30;99.90;;;;;;4975655;28;20466;-69
2022/06/27 07:43:54;;;;;;;6.43;5.93;;;25.20;99.90;;;;;;4975135;28;20463;-69
2022/06/27 07:46:21;;;;;;;6.93;6.53;;;25.20;99.90;;;;;;4975516;28;20878;-69
2022/06/27 07:48:49;;;;;;;6.73;6.43;;;25.10;99.90;;;;;;4974893;28;20535;-70
2022/06/27 07:51:19;;;;;;;7.13;6.63;;;25.00;99.90;;;;;;4975007;28;20529;-69
2022/06/27 07:53:47;;;;;;;7.30;6.70;;;25.10;99.90;;;;;;4973857;28;20468;-69
2022/06/27 07:56:15;;;;;;;7.03;6.57;;;25.10;99.90;;;;;;4975343;28;20488;-69
2022/06/27 07:58:43;;;;;;;6.37;6.03;;;25.20;99.90;;;;;;4974835;28;20518;-69
2022/06/27 08:01:14;;;;;;;6.70;6.30;;;25.50;99.90;;;;;;4974616;28;20958;-69
2022/06/27 08:03:42;;;;;;;6.30;6.10;;;25.70;99.90;;;;;;4974790;28;20467;-69
2022/06/27 08:06:11;;;;;;;6.80;6.50;;;26.00;99.90;;;;;;4974638;28;20592;-68
2022/06/27 08:08:41;;;;;;;4.90;4.70;;;26.30;99.90;;;;;;4974601;28;20520;-69
2022/06/27 08:11:11;;;;;;;6.37;6.07;;;26.30;99.90;;;;;;4974839;28;20476;-69
2022/06/27 08:13:38;;;;;;;6.17;5.90;;;26.40;99.90;;;;;;4974750;28;20557;-69
2022/06/27 08:16:06;;;;;;;5.90;5.70;;;26.30;99.90;;;;;;4972691;28;20492;-71
2022/06/27 08:18:38;;;;;;;5.97;5.63;;;26.20;99.90;;;;;;4974411;28;20460;-69
2022/06/27 08:21:06;;;;;;;6.00;5.70;;;26.30;99.90;;;;;;4974594;28;20469;-70
2022/06/27 08:23:33;;;;;;;6.10;5.83;;;26.60;99.90;;;;;;4974029;28;20475;-70
2022/06/27 08:26:00;;;;;;;6.00;5.77;;;27.30;99.90;;;;;;4974805;28;20627;-69
2022/06/27 08:28:28;;;;;;;5.30;5.20;;;27.90;99.90;;;;;;4974756;28;20474;-70
2022/06/27 08:30:55;;;;;;;5.50;5.00;;;28.40;99.90;;;;;;4973831;28;20473;-69
2022/06/27 08:33:23;;;;;;;5.93;5.83;;;28.60;99.90;;;;;;4974660;28;20498;-69
2022/06/27 08:35:52;;;;;;;5.40;5.20;;;28.50;99.90;;;;;;4974620;28;20508;-69
2022/06/27 08:38:20;;;;;;;6.20;5.80;;;28.30;99.90;;;;;;4974066;28;20980;-69
2022/06/27 08:40:47;;;;;;;6.30;6.00;;;28.10;99.90;;;;;;4974256;28;20841;-70
2022/06/27 08:43:14;;;;;;;6.17;5.97;;;28.00;99.90;;;;;;4974565;28;20837;-71
2022/06/27 08:45:44;;;;;;;5.40;4.93;;;28.00;99.90;;;;;;4973535;28;20575;-69
2022/06/27 08:48:11;;;;;;;5.13;5.03;;;27.90;99.90;;;;;;4967473;28;20482;-69
2022/06/27 08:50:39;;;;;;;6.40;5.90;;;27.60;99.90;;;;;;4972288;28;20474;-68
2022/06/27 08:53:07;;;;;;;5.47;5.23;;;27.30;99.90;;;;;;4973565;28;20504;-70
2022/06/27 08:55:35;;;;;;;6.13;5.70;;;26.90;99.90;;;;;;4974018;28;20514;-70
2022/06/27 08:58:06;;;;;;;5.73;5.47;;;26.80;99.90;;;;;;4974104;28;20474;-71
2022/06/27 09:00:36;;;;;;;5.13;4.93;;;26.70;99.90;;;;;;4973644;28;20467;-68
2022/06/27 09:03:04;;;;;;;5.67;5.47;;;26.80;99.90;;;;;;4974035;28;20464;-69
2022/06/27 09:05:32;;;;;;;5.67;5.47;;;26.60;99.90;;;;;;4973999;28;20551;-68
2022/06/27 09:08:02;;;;;;;6.17;5.87;;;26.30;99.90;;;;;;4973606;28;20566;-67
2022/06/27 09:10:32;;;;;;;5.90;5.50;;;26.30;99.90;;;;;;4973571;28;20609;-69
2022/06/27 09:13:01;;;;;;;5.50;5.30;;;26.30;99.90;;;;;;4973540;28;20492;-69
2022/06/27 09:15:43;;;;;;;6.97;6.43;;;26.20;99.90;;;;;;4973295;28;20507;-69
2022/06/27 09:18:11;;;;;;;5.27;4.97;;;26.20;99.90;;;;;;4973768;28;20883;-70
2022/06/27 09:20:50;;;;;;;6.33;6.07;;;26.10;99.90;;;;;;4973512;28;20511;-69
2022/06/27 09:23:39;;;;;;;5.63;5.40;;;26.30;99.90;;;;;;4973139;28;20471;-70
2022/06/27 09:26:12;;;;;;;5.47;5.07;;;26.40;99.90;;;;;;4973731;28;20543;-70
2022/06/27 09:28:41;;;;;;;5.03;4.60;;;26.60;99.90;;;;;;4972939;28;20505;-70
2022/06/27 09:31:10;;;;;;;5.07;4.77;;;26.70;99.90;;;;;;4973527;28;20474;-69
2022/06/27 09:33:38;;;;;;;4.70;4.50;;;27.10;99.90;;;;;;4973178;28;20527;-70
2022/06/27 09:36:13;;;;;;;4.03;3.83;;;27.00;99.90;;;;;;4973843;28;20565;-70
2022/06/27 09:38:47;;;;;;;5.53;5.30;;;27.00;99.90;;;;;;4955999;28;20590;-68
2022/06/27 09:41:16;;;;;;;5.40;5.20;;;26.70;99.90;;;;;;4954200;28;20491;-69
2022/06/27 09:43:46;;;;;;;5.87;5.57;;;26.50;99.90;;;;;;4953777;29;20467;-69
2022/06/27 09:46:14;;;;;;;6.43;6.10;;;26.60;99.90;;;;;;4954412;29;20495;-70
2022/06/27 09:48:44;;;;;;;6.73;6.37;;;26.60;99.90;;;;;;4954329;29;20578;-69
2022/06/27 09:51:15;;;;;;;6.97;6.57;;;26.50;99.90;;;;;;4954252;29;20979;-68
2022/06/27 09:53:47;;;;;;;7.40;7.00;;;26.60;99.90;;;;;;4954522;29;20562;-69
2022/06/27 09:56:18;;;;;;;7.03;6.33;;;26.60;99.90;;;;;;4955016;28;20487;-68
2022/06/27 09:58:45;;;;;;;8.07;7.67;;;26.70;99.90;;;;;;4953645;29;20467;-69
2022/06/27 10:01:12;;;;;;;7.93;7.53;;;26.70;99.90;;;;;;4953789;28;20956;-68
2022/06/27 10:03:40;;;;;;;6.90;6.50;;;26.90;99.90;;;;;;4954329;28;20475;-69
2022/06/27 10:06:07;;;;;;;7.90;7.10;;;26.90;99.90;;;;;;4955251;29;20489;-69
2022/06/27 10:08:35;;;;;;;8.53;7.73;;;27.20;99.90;;;;;;4953219;29;20911;-70
2022/06/27 10:11:08;;;;;;;8.10;7.70;;;27.20;99.90;;;;;;4953377;28;20769;-70
2022/06/27 10:13:38;;;;;;;9.70;8.90;;;26.90;99.90;;;;;;4952900;28;20508;-68
2022/06/27 10:16:08;;;;;;;8.30;7.70;;;26.90;99.90;;;;;;4960280;28;20506;-68
2022/06/27 10:19:14;;;;;;;7.90;7.30;;;27.00;99.90;;;;;;4962300;28;20475;-69
2022/06/27 10:21:43;;;;;;;7.67;7.13;;;27.10;99.90;;;;;;4893935;29;20461;-69
2022/06/27 10:24:33;;;;;;;7.73;7.40;;;27.30;99.90;;;;;;4892975;29;20548;-69
2022/06/27 10:27:03;;;;;;;8.23;7.67;;;27.20;99.90;;;;;;4932838;28;20544;-68
2022/06/27 10:29:44;;;;;;;8.20;7.53;;;27.20;99.90;;;;;;4952680;29;20539;-69
2022/06/27 10:32:40;;;;;;;9.20;8.30;;;27.30;99.90;;;;;;4953388;29;20467;-68
2022/06/27 10:35:09;;;;;;;7.77;7.27;;;27.40;99.90;;;;;;4953395;28;20522;-67
2022/06/27 10:37:38;;;;;;;9.17;8.70;;;27.40;99.90;;;;;;4952835;28;20548;-69
2022/06/27 10:40:52;;;;;;;7.60;7.17;;;27.40;99.90;;;;;;4953142;29;20889;-69
2022/06/27 10:43:47;;;;;;;7.03;6.70;;;27.40;99.90;;;;;;4953095;29;20467;-68
2022/06/27 10:46:44;;;;;;;7.27;6.97;;;27.60;99.90;;;;;;4953146;29;20487;-70
2022/06/27 10:49:21;;;;;;;7.50;7.10;;;27.50;99.90;;;;;;4952547;28;20498;-70
2022/06/27 10:51:48;;;;;;;8.87;8.37;;;26.90;99.90;;;;;;4952632;28;20467;-69
2022/06/27 10:54:16;;;;;;;8.40;7.90;;;27.10;99.90;;;;;;4952336;29;20495;-70
2022/06/27 10:56:46;;;;;;;8.63;8.13;;;27.10;99.90;;;;;;4953050;29;20529;-70
2022/06/27 11:00:03;;;;;;;7.70;7.40;;;27.50;99.90;;;;;;4952204;28;20979;-70
2022/06/27 11:02:33;;;;;;;7.40;7.00;;;27.80;99.90;;;;;;4952613;29;20459;-69
2022/06/27 11:05:00;;;;;;;9.33;8.83;;;28.00;99.90;;;;;;4952468;29;20462;-69
2022/06/27 11:07:28;;;;;;;10.77;10.07;;;27.80;99.90;;;;;;4951871;29;20470;-70
2022/06/27 11:09:55;;;;;;;10.20;9.40;;;27.70;99.90;;;;;;4952135;28;20471;-69
2022/06/27 11:12:29;;;;;;;10.37;9.77;;;27.90;99.90;;;;;;4952631;29;20467;-68
2022/06/27 11:14:58;;;;;;;10.23;9.70;;;28.00;99.90;;;;;;4951619;28;21015;-69
2022/06/27 11:17:34;;;;;;;12.03;11.17;;;27.80;99.90;;;;;;4952633;28;20498;-69
2022/06/27 11:20:19;;;;;;;11.20;10.37;;;27.50;99.90;;;;;;4952562;28;20487;-70
2022/06/27 11:22:46;;;;;;;11.37;10.77;;;27.40;99.90;;;;;;4952424;28;20471;-70
2022/06/27 11:25:14;;;;;;;10.37;9.70;;;27.50;99.90;;;;;;4952675;28;20470;-70
2022/06/27 11:27:48;;;;;;;12.70;11.70;;;27.70;99.90;;;;;;4953369;29;20582;-69
2022/06/27 11:33:19;;;;;;;12.17;11.10;;;27.30;99.90;;;;;;4952828;29;20536;-68
2022/06/27 11:35:47;;;;;;;12.17;11.27;;;27.10;99.90;;;;;;4953315;28;20493;-69
2022/06/27 11:38:24;;;;;;;12.67;11.77;;;27.00;99.90;;;;;;4959513;28;20830;-70
2022/06/27 11:41:02;;;;;;;11.33;10.70;;;26.80;99.90;;;;;;4952768;29;20513;-68
2022/06/27 11:43:52;;;;;;;12.53;11.33;;;26.80;99.90;;;;;;4952756;28;20461;-69
2022/06/27 11:46:24;;;;;;;11.20;10.33;;;26.60;99.90;;;;;;4952534;28;20516;-70
2022/06/27 11:48:54;;;;;;;11.63;10.47;;;26.80;99.90;;;;;;4952132;28;20471;-69
2022/06/27 11:51:22;;;;;;;11.67;10.67;;;27.00;99.90;;;;;;4952402;28;20471;-69
2022/06/27 11:53:54;;;;;;;11.60;10.73;;;27.00;99.90;;;;;;4951780;28;20501;-69
2022/06/27 11:56:21;;;;;;;11.33;10.37;;;27.10;99.90;;;;;;4952403;28;20492;-69
2022/06/27 11:58:52;;;;;;;11.10;10.20;;;27.20;99.90;;;;;;4952012;28;20469;-69
2022/06/27 12:01:19;;;;;;;9.53;8.93;;;27.20;99.90;;;;;;4952092;28;20523;-67
2022/06/27 12:04:11;;;;;;;10.07;9.37;;;27.30;99.90;;;;;;4952306;29;20462;-69
2022/06/27 12:06:42;;;;;;;11.00;10.30;;;27.40;99.90;;;;;;4952407;28;20521;-69
2022/06/27 12:09:08;;;;;;;10.27;9.47;;;27.40;99.90;;;;;;4951771;28;20478;-69
2022/06/27 12:11:35;;;;;;;10.40;9.63;;;27.50;99.90;;;;;;4951867;29;20469;-68
2022/06/27 12:14:03;;;;;;;10.10;9.40;;;27.50;99.90;;;;;;4951456;28;20842;-69
2022/06/27 12:16:43;;;;;;;10.77;9.80;;;27.60;99.90;;;;;;4961207;28;21011;-70
2022/06/27 12:19:12;;;;;;;10.40;9.77;;;27.90;99.90;;;;;;4971475;28;20466;-70
2022/06/27 12:21:39;;;;;;;11.20;10.50;;;27.90;99.90;;;;;;4971509;28;20471;-69
2022/06/27 12:24:06;;;;;;;11.43;10.77;;;27.70;99.90;;;;;;4970606;28;20462;-68
2022/06/27 12:26:33;;;;;;;10.20;9.50;;;27.40;99.90;;;;;;4973167;28;20574;-69
2022/06/27 12:29:00;;;;;;;10.57;9.73;;;27.00;99.90;;;;;;4974044;28;20976;-68
2022/06/27 12:31:26;;;;;;;11.53;10.73;;;27.10;99.90;;;;;;4974538;28;20483;-69
2022/06/27 12:33:53;;;;;;;11.70;10.80;;;27.00;99.90;;;;;;4974732;28;20514;-71
2022/06/27 12:36:21;;;;;;;11.13;10.43;;;26.90;99.90;;;;;;4975075;28;20490;-68
2022/06/27 12:38:48;;;;;;;11.07;10.27;;;26.80;99.90;;;;;;4973980;28;20471;-70
2022/06/27 12:41:15;;;;;;;9.63;8.93;;;26.80;99.90;;;;;;4974698;28;20582;-71
2022/06/27 12:43:44;;;;;;;9.77;9.17;;;26.90;99.90;;;;;;4974249;28;20514;-68
2022/06/27 12:46:11;;;;;;;10.10;9.30;;;26.80;99.90;;;;;;4974470;28;20483;-69
2022/06/27 12:48:38;;;;;;;7.93;7.53;;;26.60;99.90;;;;;;4966685;28;20479;-67
2022/06/27 12:51:05;;;;;;;8.70;8.00;;;26.40;99.90;;;;;;4974030;28;20464;-69
2022/06/27 12:53:34;;;;;;;9.77;9.00;;;26.30;99.90;;;;;;4973430;28;20498;-68
2022/06/27 12:56:02;;;;;;;10.07;9.47;;;26.20;99.90;;;;;;4974507;28;20855;-69
2022/06/27 12:58:29;;;;;;;10.20;9.50;;;26.00;99.90;;;;;;4974250;28;20464;-67
2022/06/27 13:00:56;;;;;;;9.30;8.80;;;25.90;99.90;;;;;;4973884;28;20526;-69
2022/06/27 13:03:23;;;;;;;10.10;9.50;;;25.90;99.90;;;;;;4973816;28;20980;-68
2022/06/27 13:05:50;;;;;;;9.03;8.53;;;26.00;99.90;;;;;;4974114;28;20488;-69
2022/06/27 13:08:17;;;;;;;9.20;8.67;;;26.10;99.90;;;;;;4973289;28;20946;-68
2022/06/27 13:10:45;;;;;;;9.80;9.20;;;26.30;99.90;;;;;;4974039;28;20784;-68
2022/06/27 13:13:12;;;;;;;10.27;9.67;;;26.40;99.90;;;;;;4974159;28;20600;-69
2022/06/27 13:15:40;;;;;;;12.07;11.17;;;26.40;99.90;;;;;;4973555;28;20486;-69
2022/06/27 13:18:09;;;;;;;10.20;9.50;;;26.20;99.90;;;;;;4973996;28;21005;-69
2022/06/27 13:20:36;;;;;;;10.73;10.00;;;26.10;99.90;;;;;;4973748;28;20952;-68
2022/06/27 13:23:03;;;;;;;9.97;9.43;;;26.00;99.90;;;;;;4973468;28;21003;-67
2022/06/27 13:25:31;;;;;;;8.67;8.17;;;26.00;99.90;;;;;;4973784;28;20852;-69
2022/06/27 13:27:59;;;;;;;8.80;8.30;;;26.00;99.90;;;;;;4973827;28;20468;-68
2022/06/27 13:30:26;;;;;;;8.30;7.90;;;26.00;99.90;;;;;;4973203;28;20471;-68
2022/06/27 13:32:53;;;;;;;8.20;7.80;;;26.30;99.90;;;;;;4973486;28;20478;-69
2022/06/27 13:35:19;;;;;;;8.90;8.30;;;26.60;99.90;;;;;;4973557;28;20579;-68
2022/06/27 13:37:46;;;;;;;8.67;8.17;;;26.70;99.90;;;;;;4963595;28;20473;-69
2022/06/27 13:40:13;;;;;;;8.37;7.93;;;26.80;99.90;;;;;;4969371;28;20963;-69
2022/06/27 13:42:40;;;;;;;9.00;8.50;;;26.70;99.90;;;;;;4973615;28;20471;-68
2022/06/27 13:45:09;;;;;;;9.40;8.70;;;26.70;99.90;;;;;;4974341;28;20467;-69
2022/06/27 13:47:37;;;;;;;8.83;8.33;;;26.70;99.90;;;;;;4973895;28;20464;-68
2022/06/27 13:50:05;;;;;;;7.73;7.33;;;26.70;99.90;;;;;;4973213;28;20464;-68
2022/06/27 13:52:34;;;;;;;8.77;8.27;;;26.80;99.90;;;;;;4973054;28;20470;-68
2022/06/27 13:55:01;;;;;;;8.70;8.30;;;27.00;99.90;;;;;;4973346;28;20586;-68
2022/06/27 13:57:29;;;;;;;9.03;8.53;;;26.90;99.90;;;;;;4973219;28;20461;-67
2022/06/27 13:59:56;;;;;;;7.50;7.20;;;27.00;99.90;;;;;;4972985;28;20471;-70
2022/06/27 14:02:24;;;;;;;8.73;8.23;;;27.10;99.90;;;;;;4973349;28;20468;-68
2022/06/27 14:04:51;;;;;;;9.50;9.00;;;27.20;99.90;;;;;;4973383;28;20463;-69
2022/06/27 14:10:02;;;;;;;8.40;8.00;;;27.00;99.90;;;;;;4974461;28;20450;-69
2022/06/27 14:12:28;;;;;;;9.40;8.80;;;27.00;99.90;;;;;;4973226;28;20499;-69
2022/06/27 14:14:55;;;;;;;7.53;7.10;;;27.00;99.90;;;;;;4972915;28;20523;-68
2022/06/27 14:17:23;;;;;;;8.50;8.10;;;27.00;99.90;;;;;;4970773;28;20996;-69
2022/06/27 14:19:50;;;;;;;9.13;8.73;;;27.10;99.90;;;;;;4973347;28;20942;-68
2022/06/27 14:22:17;;;;;;;8.80;8.30;;;27.20;99.90;;;;;;4973388;28;20468;-70
2022/06/27 14:24:44;;;;;;;9.50;9.10;;;27.40;99.90;;;;;;4973152;28;20465;-70
2022/06/27 14:27:11;;;;;;;10.00;9.50;;;27.40;99.90;;;;;;4973429;28;20864;-70
2022/06/27 14:29:37;;;;;;;8.10;7.70;;;27.30;99.90;;;;;;4972848;28;20563;-69
2022/06/27 14:32:06;;;;;;;9.20;8.60;;;27.20;99.90;;;;;;4973523;28;20468;-69
2022/06/27 14:34:34;;;;;;;9.40;8.90;;;26.90;99.90;;;;;;4973015;28;20491;-68
2022/06/27 14:37:00;;;;;;;8.70;8.30;;;26.80;99.90;;;;;;4973289;28;20507;-69
2022/06/27 14:39:27;;;;;;;9.27;8.70;;;26.70;99.90;;;;;;4972210;28;20479;-69
2022/06/27 14:41:54;;;;;;;9.93;9.43;;;26.60;99.90;;;;;;4972592;28;20781;-70
2022/06/27 14:44:21;;;;;;;10.23;9.40;;;26.40;99.90;;;;;;4972448;28;20809;-68
2022/06/27 14:46:47;;;;;;;9.03;8.43;;;26.20;99.90;;;;;;4973026;28;20877;-68
2022/06/27 14:49:15;;;;;;;9.27;8.77;;;26.40;99.90;;;;;;4964276;28;20475;-69
2022/06/27 14:51:43;;;;;;;9.67;9.07;;;26.50;99.90;;;;;;4972434;28;20571;-69
2022/06/27 14:54:10;;;;;;;9.93;9.33;;;26.60;99.90;;;;;;4971656;28;20633;-70
2022/06/27 14:56:37;;;;;;;10.17;9.50;;;26.60;99.90;;;;;;4972585;28;20919;-71
2022/06/27 14:59:04;;;;;;;9.50;9.00;;;26.40;99.90;;;;;;4972217;28;20522;-70
2022/06/27 15:01:31;;;;;;;10.40;9.80;;;26.10;99.90;;;;;;4972239;28;20478;-71
2022/06/27 15:03:58;;;;;;;11.57;10.87;;;25.90;99.90;;;;;;4972985;28;20464;-69
2022/06/27 15:06:24;;;;;;;10.60;9.80;;;25.90;99.90;;;;;;4973421;28;20491;-75
2022/06/27 15:08:52;;;;;;;8.87;8.37;;;25.80;99.90;;;;;;4974222;28;20949;-68
2022/06/27 15:11:37;;;;;;;10.27;9.70;;;26.00;99.90;;;;;;4973695;28;20554;-69
2022/06/27 15:14:04;;;;;;;10.90;9.90;;;26.20;99.90;;;;;;4971929;28;20624;-69
2022/06/27 15:16:32;;;;;;;10.40;9.80;;;26.30;99.90;;;;;;4972314;28;20896;-69
2022/06/27 15:18:59;;;;;;;9.07;8.60;;;26.20;99.90;;;;;;4972076;28;20494;-70
2022/06/27 15:21:25;;;;;;;11.43;10.83;;;26.30;99.90;;;;;;4971865;28;20490;-69
2022/06/27 15:23:53;;;;;;;11.20;10.47;;;26.20;99.90;;;;;;4971403;28;20475;-69
2022/06/27 15:26:20;;;;;;;10.00;9.40;;;26.00;99.90;;;;;;4972182;28;20575;-69
2022/06/27 15:28:47;;;;;;;11.77;10.87;;;26.00;99.90;;;;;;4971569;28;20836;-70
2022/06/27 15:31:14;;;;;;;10.33;9.73;;;25.80;99.90;;;;;;4971613;28;20975;-68
2022/06/27 15:33:41;;;;;;;11.63;10.87;;;25.80;99.90;;;;;;4972252;28;20475;-69
2022/06/27 15:36:09;;;;;;;13.27;12.27;;;25.50;99.90;;;;;;4973485;28;20491;-70
2022/06/27 15:38:36;;;;;;;11.13;10.43;;;25.50;99.90;;;;;;4968569;28;20474;-69
2022/06/27 15:41:04;;;;;;;12.10;11.40;;;25.30;99.90;;;;;;4971705;28;20452;-69
2022/06/27 15:43:31;;;;;;;12.80;12.00;;;25.30;99.90;;;;;;4972882;28;20459;-69
2022/06/27 15:45:58;;;;;;;14.20;13.13;;;25.50;99.90;;;;;;4972548;28;20479;-70
2022/06/27 15:48:25;;;;;;;14.90;13.80;;;25.50;99.90;;;;;;4972662;28;20475;-70
2022/06/27 15:50:52;;;;;;;14.57;13.60;;;25.20;99.90;;;;;;4972614;28;20563;-70
2022/06/27 15:53:18;;;;;;;14.77;13.67;;;25.10;99.90;;;;;;4972207;28;20466;-67
2022/06/27 15:55:45;;;;;;;15.20;14.17;;;25.10;99.90;;;;;;4972761;28;20523;-70
2022/06/27 15:58:13;;;;;;;15.43;14.30;;;25.30;99.90;;;;;;4972425;28;20475;-69
2022/06/27 16:00:40;;;;;;;16.17;14.87;;;25.00;99.90;;;;;;4974314;28;20463;-70
2022/06/27 16:03:07;;;;;;;17.00;15.60;;;24.60;99.90;;;;;;4975927;28;20467;-70
2022/06/27 16:05:33;;;;;;;16.13;14.93;;;24.40;99.90;;;;;;4975838;28;20506;-70
2022/06/27 16:08:00;;;;;;;16.50;15.27;;;24.20;99.90;;;;;;4974766;28;20463;-70
2022/06/27 16:10:27;;;;;;;16.07;14.57;;;23.90;99.90;;;;;;4974959;28;20495;-69
2022/06/27 16:12:54;;;;;;;16.63;15.27;;;23.80;99.90;;;;;;4975028;28;20463;-69
2022/06/27 16:15:22;;;;;;;19.50;17.70;;;23.60;99.90;;;;;;4972423;28;20523;-71
2022/06/27 16:17:48;;;;;;;15.23;14.13;;;23.60;99.90;;;;;;4984734;23;20895;-67
2022/06/27 16:20:15;;;;;;;17.63;15.97;;;23.60;99.90;;;;;;4955058;29;20460;-67
2022/06/27 16:22:42;;;;;;;15.70;14.60;;;23.60;99.90;;;;;;4954621;29;20464;-66
2022/06/27 16:25:10;;;;;;;14.80;13.70;;;23.60;99.90;;;;;;4957316;29;20472;-67
2022/06/27 16:27:36;;;;;;;14.60;13.60;;;23.40;99.90;;;;;;4955817;29;20860;-67
2022/06/27 16:30:04;;;;;;;13.13;12.07;;;23.20;99.90;;;;;;4954426;28;20825;-67
2022/06/27 16:32:31;;;;;;;14.50;13.20;;;23.10;99.90;;;;;;4955094;28;20474;-67
2022/06/27 16:34:58;;;;;;;13.47;12.37;;;23.00;99.90;;;;;;4955215;28;20492;-67
2022/06/27 16:37:25;;;;;;;14.03;12.93;;;22.90;99.90;;;;;;4954282;28;20499;-67
2022/06/27 16:39:51;;;;;;;15.57;14.20;;;22.90;99.90;;;;;;4954825;28;20468;-67
2022/06/27 16:45:02;;;;;;;21.43;19.63;;;22.40;99.90;;;;;;4954647;29;20448;-67
2022/06/27 16:47:30;;;;;;;14.80;13.50;;;22.40;99.90;;;;;;4954013;28;20502;-67
2022/06/27 16:49:58;;;;;;;13.17;12.07;;;22.30;99.90;;;;;;4948422;29;20461;-67
2022/06/27 16:52:25;;;;;;;13.73;12.63;;;22.20;99.90;;;;;;4954322;28;20475;-67
2022/06/27 16:54:52;;;;;;;14.57;13.47;;;22.20;99.90;;;;;;4954627;28;20499;-67
2022/06/27 16:57:19;;;;;;;14.47;13.37;;;22.20;99.90;;;;;;4954496;28;20488;-67
2022/06/27 16:59:46;;;;;;;15.33;13.90;;;22.10;99.90;;;;;;4953950;28;20464;-66